Time;durP1;ratioP1;P1;durP2;ratioP2;P2;SDS_P1;SDS_P2;PMS_P1;PMS_P2;Temp;Humidity;BMP_temperature;BMP_pressure;BME280_temperature;BME280_humidity;BME280_pressure;Samples;Min_cycle;Max_cycle;Signal;HPM_P1;HPM_P2
2022/01/07 00:00:42;;;;;;;4.30;1.48;;;7.10;90.00;;;;;;6263028;22;20098;-72
2022/01/07 00:03:10;;;;;;;3.33;1.35;;;7.00;90.00;;;;;;6235039;22;20016;-74
2022/01/07 00:05:36;;;;;;;4.00;1.20;;;7.00;90.10;;;;;;6242614;22;20403;-73
2022/01/07 00:08:03;;;;;;;6.18;1.65;;;7.00;89.90;;;;;;6258784;22;20026;-72
2022/01/07 00:10:29;;;;;;;4.03;1.23;;;7.00;89.90;;;;;;6263611;22;20173;-71
2022/01/07 00:12:55;;;;;;;5.43;1.40;;;7.10;89.80;;;;;;6237959;22;20040;-72
2022/01/07 00:15:21;;;;;;;3.65;1.52;;;7.10;89.50;;;;;;6234625;22;20070;-73
2022/01/07 00:17:48;;;;;;;4.80;1.75;;;7.00;89.70;;;;;;6241113;22;20007;-72
2022/01/07 00:20:15;;;;;;;5.55;1.40;;;7.00;90.10;;;;;;6248310;22;20379;-73
2022/01/07 00:22:43;;;;;;;5.93;1.30;;;6.90;90.20;;;;;;6227237;22;20016;-74
2022/01/07 00:25:12;;;;;;;5.07;1.60;;;6.80;90.40;;;;;;6232443;22;20525;-74
2022/01/07 00:27:38;;;;;;;5.13;1.70;;;6.80;90.60;;;;;;6231976;22;20016;-71
2022/01/07 00:30:07;;;;;;;3.70;1.10;;;6.80;90.50;;;;;;6228039;22;20019;-73
2022/01/07 00:32:34;;;;;;;5.25;1.50;;;6.80;90.40;;;;;;6240753;22;20404;-74
2022/01/07 00:35:03;;;;;;;3.13;1.35;;;6.80;90.10;;;;;;6217198;23;20083;-72
2022/01/07 00:37:29;;;;;;;5.65;1.60;;;6.90;90.00;;;;;;6244981;22;20055;-74
2022/01/07 00:39:56;;;;;;;4.10;1.40;;;6.90;90.10;;;;;;6242557;22;20020;-73
2022/01/07 00:42:23;;;;;;;3.45;1.35;;;6.90;90.30;;;;;;6249153;22;20020;-72
2022/01/07 00:44:50;;;;;;;2.67;1.10;;;6.90;90.00;;;;;;6229675;22;20012;-73
2022/01/07 00:47:16;;;;;;;5.97;1.50;;;6.90;90.10;;;;;;6239211;22;20011;-74
2022/01/07 00:49:44;;;;;;;2.88;1.30;;;7.00;89.70;;;;;;6240121;22;20389;-71
2022/01/07 00:52:10;;;;;;;4.78;1.13;;;7.10;88.70;;;;;;6240557;22;20050;-72
2022/01/07 00:54:36;;;;;;;5.55;1.23;;;7.20;88.50;;;;;;6252249;22;20452;-72
2022/01/07 00:57:02;;;;;;;2.80;1.15;;;7.10;88.50;;;;;;6251211;22;20066;-72
2022/01/07 00:59:29;;;;;;;4.38;1.33;;;7.20;88.60;;;;;;6239593;22;20012;-74
2022/01/07 01:01:55;;;;;;;5.80;1.30;;;7.00;89.00;;;;;;6237820;22;20022;-73
2022/01/07 01:04:21;;;;;;;2.20;0.88;;;7.00;88.50;;;;;;6240672;22;20027;-72
2022/01/07 01:06:48;;;;;;;8.65;1.48;;;7.00;89.30;;;;;;6238587;22;20093;-73
2022/01/07 01:09:15;;;;;;;4.90;1.25;;;6.90;89.20;;;;;;6218209;22;20011;-73
2022/01/07 01:11:41;;;;;;;4.78;1.30;;;6.90;89.30;;;;;;6248085;22;20069;-75
2022/01/07 01:14:08;;;;;;;3.20;1.20;;;6.90;88.70;;;;;;6239540;22;20020;-72
2022/01/07 01:16:36;;;;;;;6.57;1.40;;;7.00;88.50;;;;;;6239111;22;20004;-72
2022/01/07 01:19:04;;;;;;;4.10;1.20;;;6.90;88.90;;;;;;6254379;22;20049;-74
2022/01/07 01:21:30;;;;;;;4.63;1.17;;;6.90;89.20;;;;;;6241276;22;20091;-73
2022/01/07 01:23:56;;;;;;;6.75;1.35;;;7.00;89.20;;;;;;6240661;22;20038;-73
2022/01/07 01:26:23;;;;;;;4.88;1.58;;;6.90;89.20;;;;;;6214308;22;20083;-73
2022/01/07 01:28:50;;;;;;;3.45;1.35;;;6.90;89.50;;;;;;6236103;22;20090;-73
2022/01/07 01:31:17;;;;;;;4.72;1.40;;;6.90;89.70;;;;;;6238009;22;20008;-73
2022/01/07 01:33:45;;;;;;;4.57;1.45;;;6.80;90.00;;;;;;6240285;22;20024;-72
2022/01/07 01:36:12;;;;;;;5.78;1.20;;;6.80;90.30;;;;;;6240134;22;20473;-72
2022/01/07 01:38:38;;;;;;;6.97;1.70;;;6.70;90.30;;;;;;6251374;22;20385;-72
2022/01/07 01:41:05;;;;;;;4.65;1.50;;;6.60;90.70;;;;;;6238922;22;20018;-72
2022/01/07 01:43:32;;;;;;;5.85;1.50;;;6.50;90.80;;;;;;6239194;22;20375;-72
2022/01/07 01:45:58;;;;;;;4.68;1.60;;;6.40;91.10;;;;;;6237709;22;20036;-72
2022/01/07 01:48:24;;;;;;;6.03;1.58;;;6.30;91.40;;;;;;6240411;22;20011;-71
2022/01/07 01:50:56;;;;;;;5.68;1.80;;;6.10;91.70;;;;;;6239960;22;20094;-73
2022/01/07 01:53:24;;;;;;;5.25;1.75;;;6.10;91.70;;;;;;6262785;22;20020;-73
2022/01/07 01:55:52;;;;;;;4.45;1.67;;;6.10;91.80;;;;;;6237855;22;20020;-72
2022/01/07 01:58:19;;;;;;;3.75;1.50;;;6.10;91.70;;;;;;6237583;22;20027;-73
2022/01/07 02:00:46;;;;;;;7.00;1.88;;;6.10;91.70;;;;;;6230863;22;20095;-71
2022/01/07 02:03:12;;;;;;;5.30;1.77;;;6.10;91.60;;;;;;6255252;22;20054;-72
2022/01/07 02:05:38;;;;;;;7.50;2.05;;;6.00;91.90;;;;;;6263554;22;20016;-72
2022/01/07 02:08:04;;;;;;;4.97;1.55;;;6.00;92.00;;;;;;6264656;22;20103;-71
2022/01/07 02:10:30;;;;;;;4.93;1.42;;;6.10;91.60;;;;;;6243850;22;20019;-72
2022/01/07 02:12:56;;;;;;;2.78;1.30;;;6.10;91.60;;;;;;6259058;22;20020;-72
2022/01/07 02:15:22;;;;;;;4.72;1.60;;;6.20;91.30;;;;;;6265840;22;21275;-71
2022/01/07 02:17:50;;;;;;;4.18;1.55;;;6.20;91.60;;;;;;6248179;22;20016;-72
2022/01/07 02:20:19;;;;;;;4.50;1.60;;;6.20;91.60;;;;;;6269987;22;20035;-71
2022/01/07 02:22:45;;;;;;;4.63;1.30;;;6.10;91.40;;;;;;6242636;22;20043;-71
2022/01/07 02:25:13;;;;;;;5.18;1.52;;;6.10;91.20;;;;;;6240468;22;20038;-72
2022/01/07 02:27:41;;;;;;;7.78;1.75;;;6.00;91.60;;;;;;6240693;22;20024;-72
2022/01/07 02:30:11;;;;;;;10.13;1.70;;;6.00;91.50;;;;;;6238190;22;20098;-72
2022/01/07 02:32:38;;;;;;;3.95;1.55;;;5.90;91.70;;;;;;6241204;22;20792;-72
2022/01/07 02:35:05;;;;;;;4.03;1.50;;;5.90;91.60;;;;;;6239758;22;20020;-73
2022/01/07 02:37:33;;;;;;;2.88;1.20;;;5.80;91.70;;;;;;6241104;22;20012;-72
2022/01/07 02:39:59;;;;;;;2.85;1.10;;;5.70;91.90;;;;;;6240012;22;20078;-72
2022/01/07 02:42:25;;;;;;;4.18;1.48;;;5.50;91.80;;;;;;6250049;22;20016;-71
2022/01/07 02:44:52;;;;;;;3.65;1.65;;;5.50;91.90;;;;;;6248424;22;20440;-72
2022/01/07 02:47:21;;;;;;;5.60;1.60;;;5.70;91.40;;;;;;6240538;22;20050;-72
2022/01/07 02:49:48;;;;;;;5.10;1.40;;;5.50;91.90;;;;;;6246973;22;20043;-72
2022/01/07 02:52:17;;;;;;;3.85;1.40;;;5.70;91.80;;;;;;6240011;22;20020;-72
2022/01/07 02:54:43;;;;;;;5.00;1.80;;;5.70;91.90;;;;;;6246759;22;20030;-71
2022/01/07 02:57:08;;;;;;;7.22;1.67;;;5.60;92.90;;;;;;6237020;22;20036;-72
2022/01/07 02:59:34;;;;;;;4.32;1.10;;;5.50;92.50;;;;;;6272360;22;20027;-72
2022/01/07 03:02:00;;;;;;;3.72;1.30;;;5.40;92.70;;;;;;6268292;22;20023;-71
2022/01/07 03:04:28;;;;;;;4.65;1.15;;;5.40;92.30;;;;;;6214359;22;20015;-72
2022/01/07 03:06:54;;;;;;;4.20;1.42;;;5.50;92.50;;;;;;6243508;22;20101;-72
2022/01/07 03:09:21;;;;;;;4.57;1.40;;;5.70;91.80;;;;;;6239573;22;20491;-71
2022/01/07 03:11:47;;;;;;;4.43;1.20;;;5.80;91.80;;;;;;6242001;22;20070;-73
2022/01/07 03:14:15;;;;;;;4.82;1.40;;;6.00;91.50;;;;;;6237979;22;20043;-71
2022/01/07 03:16:41;;;;;;;4.97;1.52;;;6.10;91.80;;;;;;6262150;22;20042;-71
2022/01/07 03:19:08;;;;;;;4.03;1.20;;;6.10;91.90;;;;;;6243185;22;20011;-72
2022/01/07 03:21:33;;;;;;;3.08;1.20;;;5.90;92.00;;;;;;6241779;22;20913;-72
2022/01/07 03:24:02;;;;;;;7.32;1.45;;;6.00;92.20;;;;;;6241211;22;20011;-72
2022/01/07 03:26:28;;;;;;;6.53;1.65;;;6.00;92.00;;;;;;6258537;22;20008;-71
2022/01/07 03:28:54;;;;;;;4.57;1.58;;;6.00;91.80;;;;;;6247365;22;20093;-71
2022/01/07 03:31:21;;;;;;;5.95;1.52;;;6.00;91.90;;;;;;6239708;22;20020;-71
2022/01/07 03:33:47;;;;;;;3.65;1.35;;;6.00;91.90;;;;;;6242464;22;20012;-71
2022/01/07 03:36:13;;;;;;;5.15;1.73;;;6.00;92.00;;;;;;6239649;22;20027;-71
2022/01/07 03:38:39;;;;;;;3.42;1.15;;;6.00;91.80;;;;;;6248918;22;20070;-72
2022/01/07 03:41:05;;;;;;;3.95;1.30;;;6.10;91.90;;;;;;6243504;22;20071;-72
2022/01/07 03:43:31;;;;;;;5.10;1.67;;;6.10;91.70;;;;;;6240176;22;20080;-72
2022/01/07 03:45:57;;;;;;;3.63;1.50;;;6.10;91.80;;;;;;6239350;22;20039;-71
2022/01/07 03:48:23;;;;;;;4.55;1.55;;;6.10;91.70;;;;;;6240406;22;20127;-72
2022/01/07 03:50:49;;;;;;;4.65;1.33;;;6.10;92.00;;;;;;6252079;22;20078;-72
2022/01/07 03:53:15;;;;;;;4.47;1.65;;;6.00;92.20;;;;;;6254541;22;20012;-72
2022/01/07 03:55:41;;;;;;;5.97;1.90;;;6.00;92.20;;;;;;6249330;22;20458;-72
2022/01/07 03:58:07;;;;;;;4.15;1.35;;;5.90;92.10;;;;;;6240818;22;20039;-72
2022/01/07 04:00:38;;;;;;;5.05;1.42;;;5.90;92.00;;;;;;6240436;22;20208;-70
2022/01/07 04:03:07;;;;;;;5.38;1.63;;;6.10;91.70;;;;;;6240228;22;20043;-72
2022/01/07 04:05:34;;;;;;;4.03;1.30;;;6.10;91.90;;;;;;6242405;22;20020;-72
2022/01/07 04:07:59;;;;;;;4.90;1.58;;;6.10;91.60;;;;;;6221043;23;20020;-71
2022/01/07 04:10:25;;;;;;;5.80;1.58;;;6.10;92.10;;;;;;6270129;22;20029;-72
2022/01/07 04:12:52;;;;;;;3.90;1.63;;;6.00;92.20;;;;;;6247633;22;20016;-71
2022/01/07 04:15:21;;;;;;;4.07;1.33;;;5.90;92.50;;;;;;6237910;22;20027;-72
2022/01/07 04:17:50;;;;;;;7.45;1.90;;;5.80;92.50;;;;;;6263003;22;20666;-73
2022/01/07 04:20:21;;;;;;;3.85;1.40;;;5.70;92.70;;;;;;6241492;22;20035;-71
2022/01/07 04:22:49;;;;;;;5.20;1.38;;;5.80;92.60;;;;;;6239431;22;20056;-71
2022/01/07 04:25:17;;;;;;;4.47;1.38;;;5.80;92.40;;;;;;6240715;22;20038;-72
2022/01/07 04:28:00;;;;;;;6.03;1.88;;;5.80;92.50;;;;;;6250998;22;20366;-71
2022/01/07 04:30:31;;;;;;;3.33;1.42;;;5.80;92.70;;;;;;6272264;22;20012;-70
2022/01/07 04:32:57;;;;;;;4.85;1.40;;;5.70;92.80;;;;;;6245822;22;20012;-72
2022/01/07 04:35:24;;;;;;;5.05;1.40;;;5.80;92.50;;;;;;6238214;22;20400;-72
2022/01/07 04:37:51;;;;;;;4.38;1.30;;;5.90;92.30;;;;;;6240746;22;20091;-70
2022/01/07 04:40:18;;;;;;;3.95;1.40;;;6.00;92.10;;;;;;6239982;22;20044;-71
2022/01/07 04:42:44;;;;;;;8.52;1.38;;;6.00;92.30;;;;;;6231059;22;20016;-71
2022/01/07 04:45:11;;;;;;;4.63;1.33;;;6.00;92.10;;;;;;6268242;22;20023;-72
2022/01/07 04:47:38;;;;;;;5.72;1.35;;;6.10;92.00;;;;;;6249993;22;20439;-71
2022/01/07 04:50:06;;;;;;;5.40;1.60;;;6.10;91.80;;;;;;6240944;22;20016;-71
2022/01/07 04:52:33;;;;;;;4.63;1.30;;;6.10;91.80;;;;;;6242072;22;20020;-71
2022/01/07 04:54:59;;;;;;;5.97;1.50;;;6.30;91.60;;;;;;6241867;22;20040;-71
2022/01/07 04:57:25;;;;;;;3.83;1.20;;;6.30;91.50;;;;;;6238912;22;20019;-72
2022/01/07 04:59:51;;;;;;;6.53;1.40;;;6.40;91.40;;;;;;6263845;22;20020;-71
2022/01/07 05:02:20;;;;;;;2.75;1.10;;;6.40;91.40;;;;;;6270207;22;20019;-72
2022/01/07 05:04:47;;;;;;;3.42;1.20;;;6.30;91.60;;;;;;6247153;22;20091;-71
2022/01/07 05:07:13;;;;;;;4.13;1.23;;;6.30;91.70;;;;;;6237968;22;20019;-72
2022/01/07 05:09:39;;;;;;;3.17;1.60;;;6.20;91.80;;;;;;6261206;22;20016;-72
2022/01/07 05:12:05;;;;;;;4.13;1.20;;;6.10;92.00;;;;;;6269308;22;20435;-73
2022/01/07 05:14:31;;;;;;;3.60;1.40;;;6.10;92.10;;;;;;6249743;22;20039;-72
2022/01/07 05:16:57;;;;;;;6.10;1.58;;;6.00;92.30;;;;;;6250644;22;20012;-72
2022/01/07 05:19:23;;;;;;;4.03;1.30;;;5.90;92.30;;;;;;6269413;22;20024;-73
2022/01/07 05:21:49;;;;;;;3.55;1.25;;;5.90;92.40;;;;;;6246639;22;20027;-73
2022/01/07 05:24:15;;;;;;;4.28;1.30;;;5.90;92.10;;;;;;6250308;22;20450;-73
2022/01/07 05:26:41;;;;;;;3.38;1.20;;;5.90;91.80;;;;;;6246337;22;20058;-72
2022/01/07 05:29:07;;;;;;;3.45;1.20;;;5.90;92.00;;;;;;6270205;22;20011;-71
2022/01/07 05:31:33;;;;;;;4.15;1.52;;;5.90;91.80;;;;;;6249788;22;20015;-72
2022/01/07 05:34:00;;;;;;;3.03;1.40;;;5.80;92.00;;;;;;6239849;22;20043;-72
2022/01/07 05:36:25;;;;;;;5.07;1.45;;;5.80;91.90;;;;;;6240693;22;20016;-72
2022/01/07 05:38:51;;;;;;;3.10;1.35;;;5.80;92.20;;;;;;6240152;22;20004;-72
2022/01/07 05:41:18;;;;;;;4.40;1.70;;;5.80;92.90;;;;;;6239638;22;20016;-71
2022/01/07 05:43:44;;;;;;;4.03;1.30;;;5.80;93.00;;;;;;6250360;22;20176;-72
2022/01/07 05:46:14;;;;;;;4.63;1.65;;;5.80;92.70;;;;;;6250537;22;20040;-72
2022/01/07 05:48:43;;;;;;;2.75;1.23;;;5.70;92.90;;;;;;6239893;22;20084;-71
2022/01/07 05:51:09;;;;;;;4.63;1.60;;;5.60;92.70;;;;;;6237845;22;20007;-70
2022/01/07 05:53:35;;;;;;;5.93;1.60;;;5.60;93.20;;;;;;6238496;23;20008;-71
2022/01/07 05:56:01;;;;;;;3.88;1.30;;;5.50;93.60;;;;;;6238456;22;20115;-71
2022/01/07 05:58:28;;;;;;;4.30;1.23;;;5.50;92.70;;;;;;6239610;22;20321;-71
2022/01/07 06:00:54;;;;;;;6.85;1.80;;;5.60;93.00;;;;;;6240893;22;20518;-72
2022/01/07 06:03:21;;;;;;;4.30;1.50;;;5.50;93.10;;;;;;6239563;22;20016;-72
2022/01/07 06:05:46;;;;;;;4.82;1.48;;;5.60;93.20;;;;;;6263760;22;20020;-72
2022/01/07 06:08:12;;;;;;;4.78;1.40;;;5.50;93.40;;;;;;6263514;22;20325;-72
2022/01/07 06:10:39;;;;;;;3.83;1.40;;;5.30;93.60;;;;;;6239219;22;20027;-71
2022/01/07 06:13:05;;;;;;;4.68;1.55;;;5.20;94.10;;;;;;6237769;22;20447;-72
2022/01/07 06:15:32;;;;;;;5.40;1.55;;;5.30;93.70;;;;;;6242036;22;20016;-72
2022/01/07 06:17:59;;;;;;;4.85;1.30;;;5.40;93.20;;;;;;6239612;22;20043;-71
2022/01/07 06:20:26;;;;;;;5.20;1.60;;;5.40;93.00;;;;;;6241048;22;20432;-71
2022/01/07 06:22:52;;;;;;;3.97;1.40;;;5.50;93.00;;;;;;6241001;22;20016;-72
2022/01/07 06:25:18;;;;;;;3.50;1.40;;;5.60;93.20;;;;;;6239153;22;20096;-71
2022/01/07 06:27:44;;;;;;;4.18;0.93;;;5.70;92.90;;;;;;6238696;23;20032;-72
2022/01/07 06:30:10;;;;;;;3.28;1.23;;;5.80;92.80;;;;;;6240728;22;20014;-71
2022/01/07 06:32:37;;;;;;;5.57;1.27;;;5.80;92.70;;;;;;6242072;22;20016;-72
2022/01/07 06:35:04;;;;;;;4.35;1.38;;;5.70;92.70;;;;;;6240799;22;20448;-71
2022/01/07 06:37:29;;;;;;;6.13;1.38;;;5.80;92.60;;;;;;6240886;23;20162;-71
2022/01/07 06:39:56;;;;;;;5.00;1.65;;;5.80;92.60;;;;;;6240404;22;20044;-72
2022/01/07 06:42:22;;;;;;;6.00;1.30;;;5.80;92.60;;;;;;6241642;22;20020;-72
2022/01/07 06:44:49;;;;;;;4.20;1.50;;;5.70;92.60;;;;;;6242991;22;20436;-72
2022/01/07 06:47:15;;;;;;;4.40;1.38;;;5.70;92.80;;;;;;6215284;22;20094;-71
2022/01/07 06:49:41;;;;;;;5.43;1.30;;;5.60;93.00;;;;;;6242284;22;20447;-71
2022/01/07 06:52:07;;;;;;;4.65;1.30;;;5.50;93.10;;;;;;6254124;22;20674;-71
2022/01/07 06:54:34;;;;;;;6.28;1.70;;;5.50;93.20;;;;;;6254127;22;20328;-72
2022/01/07 06:57:00;;;;;;;4.50;1.40;;;5.50;93.00;;;;;;6241337;22;20027;-72
2022/01/07 06:59:26;;;;;;;4.47;1.35;;;5.50;93.20;;;;;;6242060;22;20016;-72
2022/01/07 07:01:52;;;;;;;2.60;1.10;;;5.60;92.80;;;;;;6258287;22;20019;-71
2022/01/07 07:04:19;;;;;;;6.65;1.38;;;5.70;92.20;;;;;;6239783;22;20016;-71
2022/01/07 07:06:45;;;;;;;3.20;1.17;;;5.70;91.70;;;;;;6205338;22;20047;-71
2022/01/07 07:09:12;;;;;;;2.60;1.33;;;5.50;92.10;;;;;;6257231;22;20336;-71
2022/01/07 07:11:39;;;;;;;4.20;1.60;;;5.50;92.80;;;;;;6242694;22;20027;-72
2022/01/07 07:14:06;;;;;;;6.43;1.75;;;5.40;92.90;;;;;;6238487;22;20086;-71
2022/01/07 07:16:32;;;;;;;4.63;1.70;;;5.40;93.20;;;;;;6246076;22;20008;-72
2022/01/07 07:18:58;;;;;;;4.63;1.58;;;5.40;93.30;;;;;;6258556;22;20323;-74
2022/01/07 07:21:24;;;;;;;3.05;1.52;;;5.20;93.40;;;;;;6256764;22;20398;-73
2022/01/07 07:23:50;;;;;;;6.10;1.77;;;5.20;93.40;;;;;;6260335;22;20415;-72
2022/01/07 07:26:16;;;;;;;7.30;1.80;;;5.10;93.70;;;;;;6257747;22;20012;-72
2022/01/07 07:28:42;;;;;;;4.50;1.83;;;5.10;93.80;;;;;;6251321;22;20008;-73
2022/01/07 07:31:14;;;;;;;3.95;1.60;;;5.10;93.90;;;;;;6241989;22;20023;-72
2022/01/07 07:36:30;;;;;;;2.67;1.60;;;5.10;93.50;;;;;;6271200;22;20047;-73
2022/01/07 07:39:09;;;;;;;6.20;1.70;;;5.10;93.60;;;;;;6252034;22;20012;-72
2022/01/07 07:41:36;;;;;;;5.00;2.15;;;5.30;93.80;;;;;;6241655;22;20016;-71
2022/01/07 07:44:04;;;;;;;10.98;2.65;;;5.10;94.10;;;;;;6242120;22;20036;-74
2022/01/07 07:46:32;;;;;;;7.80;2.30;;;5.10;94.60;;;;;;6239926;23;20505;-72
2022/01/07 07:49:00;;;;;;;4.68;2.00;;;5.10;94.80;;;;;;6240966;22;20339;-72
2022/01/07 07:51:28;;;;;;;8.13;2.65;;;5.10;94.70;;;;;;6213691;22;20384;-72
2022/01/07 07:53:54;;;;;;;8.23;2.28;;;5.00;94.90;;;;;;6264491;22;20014;-73
2022/01/07 07:56:22;;;;;;;9.73;2.10;;;5.00;95.00;;;;;;6258679;22;20042;-73
2022/01/07 07:58:49;;;;;;;6.90;2.28;;;5.00;95.10;;;;;;6248865;22;20020;-72
2022/01/07 08:01:17;;;;;;;7.30;2.33;;;5.10;95.30;;;;;;6240738;22;20425;-72
2022/01/07 08:03:46;;;;;;;9.07;2.17;;;5.20;95.30;;;;;;6239467;22;20016;-74
2022/01/07 08:06:12;;;;;;;7.07;2.22;;;5.20;95.10;;;;;;6241721;22;20036;-72
2022/01/07 08:08:39;;;;;;;9.02;2.40;;;5.20;95.20;;;;;;6234647;22;20406;-73
2022/01/07 08:11:08;;;;;;;6.63;2.05;;;5.40;95.00;;;;;;6237867;22;20471;-72
2022/01/07 08:16:20;;;;;;;6.40;2.38;;;5.50;94.80;;;;;;6240298;22;20031;-74
2022/01/07 08:18:55;;;;;;;7.80;2.53;;;5.40;95.00;;;;;;6250138;22;20321;-72
2022/01/07 08:21:24;;;;;;;7.15;2.67;;;5.60;95.10;;;;;;6268385;22;20016;-72
2022/01/07 08:23:52;;;;;;;8.60;2.03;;;5.80;95.10;;;;;;6247507;22;20063;-72
2022/01/07 08:26:20;;;;;;;7.15;2.17;;;6.40;94.50;;;;;;6239201;22;20023;-73
2022/01/07 08:29:00;;;;;;;3.22;1.52;;;6.40;93.60;;;;;;6250237;22;20087;-72
2022/01/07 08:36:41;;;;;;;6.15;2.47;;;10.60;89.30;;;;;;6248812;22;20134;-73
2022/01/07 08:39:09;;;;;;;6.90;2.50;;;11.90;85.40;;;;;;6251478;22;20030;-73
2022/01/07 08:41:36;;;;;;;4.07;2.22;;;12.90;85.00;;;;;;6249650;22;20008;-72
2022/01/07 08:44:03;;;;;;;7.18;2.20;;;13.70;82.60;;;;;;6241047;22;20013;-71
2022/01/07 08:46:29;;;;;;;5.38;2.17;;;13.80;81.00;;;;;;6240729;22;20348;-72
2022/01/07 08:48:57;;;;;;;5.68;2.30;;;13.70;82.40;;;;;;6240394;22;20016;-71
2022/01/07 08:51:26;;;;;;;6.03;2.13;;;14.00;80.70;;;;;;6249604;22;20427;-73
2022/01/07 08:53:53;;;;;;;5.07;2.40;;;14.20;79.70;;;;;;6250701;22;20360;-74
2022/01/07 08:56:23;;;;;;;7.03;2.20;;;14.70;79.80;;;;;;6250470;22;20020;-73
2022/01/07 08:58:53;;;;;;;3.88;1.63;;;14.80;78.80;;;;;;6241021;22;20096;-73
2022/01/07 09:01:20;;;;;;;5.78;1.92;;;13.60;77.70;;;;;;6251307;22;20051;-73
2022/01/07 09:03:46;;;;;;;3.92;1.60;;;12.60;78.30;;;;;;6239647;23;20099;-73
2022/01/07 09:06:13;;;;;;;3.97;1.42;;;11.40;79.90;;;;;;6237143;22;20016;-72
2022/01/07 09:08:39;;;;;;;5.07;1.65;;;10.40;81.70;;;;;;6241675;22;20023;-72
2022/01/07 09:11:05;;;;;;;4.22;1.45;;;9.80;83.80;;;;;;6239821;22;20024;-73
2022/01/07 09:13:32;;;;;;;3.83;1.95;;;9.30;84.60;;;;;;6262060;22;20026;-72
2022/01/07 09:15:58;;;;;;;7.68;2.00;;;9.20;85.10;;;;;;6244849;22;20024;-74
2022/01/07 09:18:26;;;;;;;3.35;1.48;;;8.90;85.30;;;;;;6239598;22;20015;-73
2022/01/07 09:20:56;;;;;;;4.20;1.35;;;9.10;85.40;;;;;;6252917;22;20026;-74
2022/01/07 09:23:22;;;;;;;5.88;1.70;;;9.10;85.90;;;;;;6193776;22;20020;-73
2022/01/07 09:25:48;;;;;;;3.38;1.40;;;9.30;85.70;;;;;;6213358;23;20027;-76
2022/01/07 09:28:14;;;;;;;4.40;1.42;;;9.20;85.20;;;;;;6239342;22;20046;-71
2022/01/07 09:30:40;;;;;;;5.43;1.52;;;9.10;85.10;;;;;;6238132;22;20134;-71
2022/01/07 09:33:07;;;;;;;4.28;2.00;;;9.20;85.00;;;;;;6232631;22;20050;-76
2022/01/07 09:35:33;;;;;;;5.00;1.50;;;9.70;84.80;;;;;;6244833;22;20503;-73
2022/01/07 09:37:59;;;;;;;3.97;1.55;;;10.40;84.30;;;;;;6254081;22;20015;-74
2022/01/07 09:40:26;;;;;;;3.83;1.25;;;11.00;83.30;;;;;;6239865;22;20016;-74
2022/01/07 09:43:04;;;;;;;9.82;4.28;;;11.40;82.10;;;;;;6237885;22;20016;-72
2022/01/07 09:45:32;;;;;;;5.20;1.70;;;11.50;80.70;;;;;;6239818;22;20108;-72
2022/01/07 09:48:01;;;;;;;6.72;2.95;;;11.50;80.90;;;;;;6231338;22;20012;-72
2022/01/07 09:50:29;;;;;;;5.53;2.13;;;11.70;81.20;;;;;;6228094;22;20016;-72
2022/01/07 09:52:55;;;;;;;5.40;1.88;;;11.90;81.30;;;;;;6241700;22;20015;-72
2022/01/07 09:55:23;;;;;;;5.35;1.63;;;12.10;80.90;;;;;;6249303;22;20566;-73
2022/01/07 09:57:50;;;;;;;4.65;1.60;;;12.40;80.20;;;;;;6256525;22;20550;-72
2022/01/07 10:00:16;;;;;;;5.13;1.90;;;12.50;79.80;;;;;;6236657;22;20021;-74
2022/01/07 10:02:59;;;;;;;4.15;1.63;;;12.60;79.80;;;;;;6236675;22;20043;-73
2022/01/07 10:05:26;;;;;;;3.90;1.73;;;12.90;79.40;;;;;;6235353;22;20012;-74
2022/01/07 10:07:52;;;;;;;4.25;1.70;;;13.10;79.00;;;;;;6236703;23;20444;-71
2022/01/07 10:10:19;;;;;;;6.55;1.63;;;13.20;77.50;;;;;;6239388;22;20051;-72
2022/01/07 10:12:59;;;;;;;6.80;2.35;;;12.80;77.00;;;;;;6277744;22;20019;-72
2022/01/07 10:15:28;;;;;;;3.45;1.60;;;12.90;78.00;;;;;;6245568;22;20043;-72
2022/01/07 10:18:06;;;;;;;3.83;1.50;;;13.10;77.30;;;;;;6246987;22;20194;-73
2022/01/07 10:20:36;;;;;;;5.55;1.88;;;13.20;76.80;;;;;;6235869;22;20012;-73
2022/01/07 10:23:18;;;;;;;4.30;1.80;;;13.20;77.80;;;;;;6234170;22;20377;-72
2022/01/07 10:25:47;;;;;;;9.15;2.22;;;13.10;77.50;;;;;;6251207;22;20016;-73
2022/01/07 10:28:17;;;;;;;6.07;1.77;;;13.40;77.10;;;;;;6226768;22;20090;-74
2022/01/07 10:30:48;;;;;;;5.93;2.20;;;13.70;77.20;;;;;;6227632;22;20091;-73
2022/01/07 10:33:35;;;;;;;8.30;2.42;;;13.90;77.00;;;;;;6233879;22;20389;-73
2022/01/07 10:36:07;;;;;;;5.13;1.67;;;14.10;77.00;;;;;;6244351;22;20027;-73
2022/01/07 10:38:36;;;;;;;5.30;1.90;;;14.10;77.30;;;;;;6246379;22;20008;-74
2022/01/07 10:41:03;;;;;;;3.67;2.15;;;14.30;76.40;;;;;;6239713;22;20008;-74
2022/01/07 10:43:35;;;;;;;4.88;1.77;;;14.40;75.70;;;;;;6240121;22;20088;-73
2022/01/07 10:46:19;;;;;;;4.75;1.90;;;14.40;76.10;;;;;;6250934;22;20594;-74
2022/01/07 10:48:56;;;;;;;4.43;1.90;;;14.80;76.40;;;;;;6255210;22;20016;-73
2022/01/07 10:51:26;;;;;;;7.50;2.15;;;15.10;76.00;;;;;;6254143;22;20411;-76
2022/01/07 10:53:53;;;;;;;9.02;2.45;;;15.40;75.90;;;;;;6251578;22;20026;-73
2022/01/07 10:56:22;;;;;;;6.07;2.28;;;15.70;75.40;;;;;;6222966;22;20024;-73
2022/01/07 10:58:57;;;;;;;5.93;2.47;;;15.90;75.90;;;;;;6228292;22;20043;-73
2022/01/07 11:01:28;;;;;;;5.18;2.25;;;16.20;75.10;;;;;;6249042;22;20044;-72
2022/01/07 11:03:59;;;;;;;7.22;2.28;;;16.60;75.30;;;;;;6237106;22;20031;-74
2022/01/07 11:06:28;;;;;;;6.00;1.70;;;16.60;74.60;;;;;;6223832;22;20031;-73
2022/01/07 11:08:56;;;;;;;7.65;2.72;;;16.20;72.30;;;;;;6226566;23;20051;-73
2022/01/07 11:11:24;;;;;;;6.82;1.70;;;15.60;72.80;;;;;;6227848;22;20724;-72
2022/01/07 11:13:51;;;;;;;6.30;1.50;;;15.40;70.70;;;;;;6251530;22;20853;-76
2022/01/07 11:16:19;;;;;;;3.97;1.48;;;13.90;71.10;;;;;;6228781;22;20032;-73
2022/01/07 11:18:46;;;;;;;3.40;1.40;;;14.70;71.10;;;;;;6226936;22;20982;-72
2022/01/07 11:21:16;;;;;;;1.50;1.00;;;15.10;72.20;;;;;;6264750;22;20331;-74
2022/01/07 11:23:42;;;;;;;2.80;1.10;;;14.60;69.50;;;;;;6240779;22;20016;-73
2022/01/07 11:26:10;;;;;;;8.05;1.45;;;14.70;70.30;;;;;;6247571;22;20348;-73
2022/01/07 11:28:53;;;;;;;3.42;1.10;;;14.50;70.30;;;;;;6225762;22;20031;-73
2022/01/07 11:31:18;;;;;;;9.25;1.52;;;14.30;71.00;;;;;;6243426;22;20012;-73
2022/01/07 11:33:45;;;;;;;8.57;1.80;;;14.40;69.30;;;;;;6238517;22;20020;-72
2022/01/07 11:36:32;;;;;;;4.03;1.42;;;15.10;70.10;;;;;;6244232;22;20497;-72
2022/01/07 11:39:04;;;;;;;5.85;1.65;;;16.20;70.60;;;;;;6249845;22;20472;-71
2022/01/07 11:41:44;;;;;;;3.83;1.83;;;15.80;70.30;;;;;;6242538;22;20039;-72
2022/01/07 11:44:20;;;;;;;5.40;1.85;;;15.60;72.30;;;;;;6239125;22;20613;-73
2022/01/07 11:46:48;;;;;;;5.78;1.60;;;15.00;72.40;;;;;;6238583;22;20054;-73
2022/01/07 11:49:43;;;;;;;4.75;1.90;;;14.70;72.40;;;;;;6268644;22;20012;-73
2022/01/07 11:52:30;;;;;;;4.72;1.50;;;15.20;72.40;;;;;;6225304;22;20014;-74
2022/01/07 11:55:16;;;;;;;2.72;1.30;;;15.30;70.20;;;;;;6229897;22;20392;-72
2022/01/07 11:58:08;;;;;;;3.33;1.42;;;15.20;70.40;;;;;;6252241;22;20004;-72
2022/01/07 12:00:56;;;;;;;5.68;1.70;;;15.40;71.50;;;;;;6236874;22;20012;-72
2022/01/07 12:03:53;;;;;;;5.63;1.83;;;16.00;70.60;;;;;;6244164;22;20016;-73
2022/01/07 12:06:26;;;;;;;6.50;2.00;;;16.70;70.00;;;;;;6260679;22;20015;-73
2022/01/07 12:09:05;;;;;;;5.30;2.00;;;16.80;70.30;;;;;;6236873;22;20012;-75
2022/01/07 12:11:38;;;;;;;3.90;1.63;;;16.90;70.30;;;;;;6245625;22;20023;-73
2022/01/07 12:14:12;;;;;;;6.22;2.28;;;15.90;71.40;;;;;;6237075;22;20138;-73
2022/01/07 12:16:40;;;;;;;3.63;1.88;;;15.80;70.80;;;;;;6237608;22;20012;-73
2022/01/07 12:19:12;;;;;;;3.92;2.10;;;17.20;70.90;;;;;;6239482;22;20011;-72
2022/01/07 12:21:42;;;;;;;4.80;1.70;;;18.10;69.70;;;;;;6237893;23;20011;-73
2022/01/07 12:24:11;;;;;;;5.57;2.13;;;18.70;68.70;;;;;;6237274;22;20061;-72
2022/01/07 12:26:38;;;;;;;5.75;1.63;;;19.50;68.60;;;;;;6234900;22;20039;-71
2022/01/07 12:29:04;;;;;;;4.97;1.60;;;20.20;66.60;;;;;;6211806;22;20058;-74
2022/01/07 12:31:30;;;;;;;6.05;2.03;;;20.30;66.40;;;;;;6231515;22;20070;-75
2022/01/07 12:33:59;;;;;;;5.38;1.85;;;21.60;65.90;;;;;;6241592;22;20012;-74
2022/01/07 12:36:32;;;;;;;6.45;1.75;;;21.50;65.00;;;;;;6243680;22;20020;-75
2022/01/07 12:39:09;;;;;;;3.80;2.13;;;21.00;64.80;;;;;;6238745;22;20016;-75
2022/01/07 12:41:39;;;;;;;3.97;1.70;;;20.80;64.60;;;;;;6238456;23;20016;-74
2022/01/07 12:44:09;;;;;;;3.00;1.40;;;19.00;65.30;;;;;;6214035;22;20018;-75
2022/01/07 12:46:37;;;;;;;3.67;1.67;;;17.60;65.70;;;;;;6248310;22;20031;-75
2022/01/07 12:49:05;;;;;;;4.60;1.70;;;17.80;66.30;;;;;;6248361;22;20034;-75
2022/01/07 12:51:31;;;;;;;4.50;1.70;;;18.80;67.20;;;;;;6241998;22;20035;-75
2022/01/07 12:54:03;;;;;;;3.60;1.70;;;17.80;67.70;;;;;;6239873;23;20047;-74
2022/01/07 12:56:30;;;;;;;;;;;17.70;69.00;;;;;;6241991;22;20492;-76
2022/01/07 12:58:57;;;;;;;3.75;2.00;;;17.30;69.00;;;;;;6240442;22;19985;-74
2022/01/07 13:01:26;;;;;;;3.83;1.80;;;18.50;68.60;;;;;;6241360;22;20020;-75
2022/01/07 13:04:05;;;;;;;5.72;1.90;;;19.20;68.50;;;;;;6242318;22;20019;-75
2022/01/07 13:06:47;;;;;;;3.03;1.65;;;19.40;68.30;;;;;;6241464;22;20016;-73
2022/01/07 13:09:29;;;;;;;5.20;1.90;;;19.50;67.60;;;;;;6243219;22;20016;-75